Time;durP1;ratioP1;P1;durP2;ratioP2;P2;SDS_P1;SDS_P2;PMS_P1;PMS_P2;Temp;Humidity;BMP_temperature;BMP_pressure;BME280_temperature;BME280_humidity;BME280_pressure;Samples;Min_cycle;Max_cycle;Signal;HPM_P1;HPM_P2
2023/06/02 00:01:24;;;;;;;;;3.00;3.00;;;;;12.54;59.99;102299.41;5003044;28;9849;-67
2023/06/02 00:03:53;;;;;;;;;2.75;2.75;;;;;12.54;60.10;102291.31;5010439;28;10030;-67
2023/06/02 00:06:20;;;;;;;;;6.00;3.25;;;;;12.54;60.10;102285.91;5008097;28;9776;-67
2023/06/02 00:08:47;;;;;;;;;2.50;2.50;;;;;12.55;59.83;102284.03;5006215;28;9772;-67
2023/06/02 00:11:14;;;;;;;;;5.00;5.00;;;;;12.52;60.18;102279.84;5009172;28;9828;-67
2023/06/02 00:13:42;;;;;;;;;2.25;2.25;;;;;12.51;60.38;102283.53;4997822;28;9874;-67
2023/06/02 00:16:09;;;;;;;;;5.25;3.25;;;;;12.49;60.16;102276.66;4999171;28;9877;-67
2023/06/02 00:18:37;;;;;;;;;5.00;2.00;;;;;12.47;60.56;102289.47;5012942;28;9774;-67
2023/06/02 00:21:06;;;;;;;;;4.00;3.75;;;;;12.47;60.44;102282.19;5007162;28;9917;-67
2023/06/02 00:23:33;;;;;;;;;3.50;1.00;;;;;12.43;60.81;102278.16;5006138;28;9954;-67
2023/06/02 00:26:00;;;;;;;;;2.00;2.00;;;;;12.44;60.93;102279.88;5001006;28;9773;-67
2023/06/02 00:28:28;;;;;;;;;2.75;2.25;;;;;12.45;60.69;102278.84;4996205;28;9951;-67
2023/06/02 00:30:55;;;;;;;;;6.00;4.75;;;;;12.43;60.62;102267.34;5004888;28;9753;-68
2023/06/02 00:33:22;;;;;;;;;5.50;2.75;;;;;12.39;60.71;102274.13;5022945;28;10054;-67
2023/06/02 00:35:48;;;;;;;;;3.00;2.50;;;;;12.40;60.32;102288.44;5010199;28;9870;-67
2023/06/02 00:38:15;;;;;;;;;3.75;3.00;;;;;12.30;59.84;102280.53;5020365;28;9972;-67
2023/06/02 00:40:42;;;;;;;;;4.75;3.00;;;;;12.19;60.25;102272.78;5008234;28;10039;-67
2023/06/02 00:43:09;;;;;;;;;2.00;2.00;;;;;12.06;60.81;102268.75;4998718;28;9787;-65
2023/06/02 00:45:35;;;;;;;;;3.50;2.00;;;;;12.13;61.16;102277.03;5006140;28;9856;-67
2023/06/02 00:48:02;;;;;;;;;2.00;2.00;;;;;12.15;61.14;102269.56;5007530;28;9758;-67
2023/06/02 00:50:32;;;;;;;;;2.75;2.75;;;;;12.17;60.96;102269.44;5015510;28;9928;-68
2023/06/02 00:52:59;;;;;;;;;3.00;3.00;;;;;12.19;60.84;102270.94;5004629;28;9920;-67
2023/06/02 00:55:30;;;;;;;;;3.00;2.25;;;;;12.23;60.93;102279.53;4989058;28;9879;-67
2023/06/02 00:57:59;;;;;;;;;3.75;3.75;;;;;12.12;60.68;102275.34;4975578;28;10112;-67
2023/06/02 01:00:27;;;;;;;;;4.00;3.50;;;;;12.07;60.73;102270.44;4988651;28;9859;-67
2023/06/02 01:02:57;;;;;;;;;2.50;1.75;;;;;12.04;60.76;102267.25;5004814;28;10099;-67
2023/06/02 01:05:25;;;;;;;;;3.50;1.25;;;;;12.11;60.99;102263.69;5022519;28;10014;-67
2023/06/02 01:07:58;;;;;;;;;2.25;2.25;;;;;12.18;61.24;102263.84;5018475;28;10762;-67
2023/06/02 01:10:26;;;;;;;;;4.75;1.00;;;;;12.20;61.00;102267.22;5005331;28;10122;-67
2023/06/02 01:12:54;;;;;;;;;2.00;2.00;;;;;12.17;60.76;102264.88;4993981;28;10795;-67
2023/06/02 01:15:20;;;;;;;;;3.00;3.00;;;;;12.20;60.66;102269.09;5012308;28;9930;-66
2023/06/02 01:17:51;;;;;;;;;5.00;4.00;;;;;12.08;60.24;102271.28;5007735;28;10031;-65
2023/06/02 01:20:21;;;;;;;;;3.00;2.00;;;;;12.08;61.04;102274.84;5003931;28;10131;-65
2023/06/02 01:23:09;;;;;;;;;5.50;5.00;;;;;12.14;61.15;102270.59;4995275;28;10049;-65
2023/06/02 01:25:36;;;;;;;;;4.25;4.25;;;;;12.15;61.04;102271.44;5010044;28;10679;-65
2023/06/02 01:28:06;;;;;;;;;2.25;1.25;;;;;12.12;60.83;102269.94;5010304;28;10022;-65
2023/06/02 01:30:34;;;;;;;;;2.00;2.00;;;;;12.16;61.36;102268.59;5015895;28;10583;-67
2023/06/02 01:33:19;;;;;;;;;1.00;1.00;;;;;12.26;61.33;102279.19;5011243;28;9790;-65
2023/06/02 01:35:49;;;;;;;;;2.00;1.00;;;;;12.24;60.76;102275.84;4992285;28;9858;-65
2023/06/02 01:38:17;;;;;;;;;2.00;1.50;;;;;12.22;61.20;102272.44;5011347;28;9919;-66
2023/06/02 01:40:45;;;;;;;;;1.00;1.00;;;;;12.26;61.35;102273.81;5020252;28;9873;-65
2023/06/02 01:43:14;;;;;;;;;3.00;2.75;;;;;12.25;61.16;102269.41;5005155;28;9681;-66
2023/06/02 01:45:42;;;;;;;;;2.00;2.00;;;;;12.24;61.12;102275.84;5017976;28;9852;-67
2023/06/02 01:48:09;;;;;;;;;3.00;2.75;;;;;12.23;61.43;102271.44;5017789;28;9769;-67
2023/06/02 01:50:37;;;;;;;;;1.00;1.00;;;;;12.20;60.81;102269.09;5021016;28;9773;-65
2023/06/02 01:53:04;;;;;;;;;2.50;1.75;;;;;12.10;61.09;102263.84;5030358;28;9754;-67
2023/06/02 01:55:32;;;;;;;;;5.50;3.00;;;;;12.15;61.86;102266.03;4994506;28;9924;-68
2023/06/02 01:57:59;;;;;;;;;6.00;3.00;;;;;12.16;61.40;102267.75;5022300;28;9772;-65
2023/06/02 02:00:26;;;;;;;;;4.75;3.00;;;;;12.11;61.66;102269.09;5008598;28;9897;-66
2023/06/02 02:02:52;;;;;;;;;2.00;1.00;;;;;12.11;61.53;102265.53;5007772;28;10662;-65
2023/06/02 02:05:20;;;;;;;;;3.25;1.00;;;;;12.06;61.75;102263.34;4994110;28;9919;-65
2023/06/02 02:07:47;;;;;;;;;2.50;2.00;;;;;12.07;61.42;102266.88;5007622;28;10074;-65
2023/06/02 02:10:14;;;;;;;;;2.25;2.00;;;;;12.06;61.26;102259.81;5012243;28;9947;-67
2023/06/02 02:12:41;;;;;;;;;2.75;2.00;;;;;12.11;61.01;102261.00;5010821;28;9940;-67
2023/06/02 02:15:09;;;;;;;;;1.00;1.00;;;;;12.11;61.11;102257.44;5010061;28;10044;-65
2023/06/02 02:17:44;;;;;;;;;2.50;2.50;;;;;12.06;60.61;102262.50;5008892;28;9854;-67
2023/06/02 02:20:12;;;;;;;;;5.00;3.00;;;;;11.92;60.66;102260.50;5018253;28;9884;-67
2023/06/02 02:22:38;;;;;;;;;2.25;2.00;;;;;11.96;60.98;102261.84;5010592;28;10090;-67
2023/06/02 02:25:05;;;;;;;;;3.00;3.00;;;;;11.98;61.17;102268.75;4996874;28;10076;-67
2023/06/02 02:27:32;;;;;;;;;1.25;1.25;;;;;12.00;61.26;102264.03;5009268;28;9843;-67
2023/06/02 02:29:58;;;;;;;;;3.75;3.75;;;;;11.98;60.96;102266.03;5008532;28;9955;-67
2023/06/02 02:32:25;;;;;;;;;3.75;1.25;;;;;12.00;61.11;102265.91;5006577;28;10019;-65
2023/06/02 02:34:52;;;;;;;;;1.00;1.00;;;;;12.00;61.43;102261.34;5010161;28;9992;-67
2023/06/02 02:37:19;;;;;;;;;1.75;1.75;;;;;12.00;61.34;102261.34;5010310;28;9947;-67
2023/06/02 02:39:58;;;;;;;;;3.00;2.00;;;;;11.97;61.12;102267.06;4991559;28;10027;-67
2023/06/02 02:42:25;;;;;;;;;2.00;2.00;;;;;11.93;61.04;102260.31;5009707;28;10002;-67
2023/06/02 02:44:52;;;;;;;;;1.00;1.00;;;;;11.87;61.51;102263.69;5009932;28;9910;-67
2023/06/02 02:47:18;;;;;;;;;1.25;1.25;;;;;11.82;61.59;102263.31;5013219;28;10801;-67
2023/06/02 02:49:46;;;;;;;;;3.50;3.50;;;;;11.83;61.42;102259.66;4992842;28;10723;-67
2023/06/02 02:52:12;;;;;;;;;1.00;1.00;;;;;11.83;61.31;102260.50;5009291;28;9983;-67
2023/06/02 02:54:39;;;;;;;;;3.00;3.00;;;;;11.82;61.55;102261.44;5009991;28;9871;-67
2023/06/02 02:57:07;;;;;;;;;3.25;2.25;;;;;11.85;61.85;102263.84;4994040;28;10029;-67
2023/06/02 02:59:35;;;;;;;;;2.00;2.00;;;;;11.93;61.45;102260.31;5003672;28;10036;-67
2023/06/02 03:02:06;;;;;;;;;1.00;1.00;;;;;11.97;60.91;102258.13;5018544;28;10031;-67
2023/06/02 03:04:34;;;;;;;;;6.75;2.25;;;;;11.95;61.01;102262.84;4994969;28;9955;-67
2023/06/02 03:07:02;;;;;;;;;1.75;1.75;;;;;11.95;59.98;102254.75;5006499;28;10115;-67
2023/06/02 03:09:28;;;;;;;;;2.00;2.00;;;;;11.94;60.39;102253.91;5006974;28;10186;-67
2023/06/02 03:11:57;;;;;;;;;5.50;3.00;;;;;11.95;60.48;102246.66;4998522;28;9869;-67
2023/06/02 03:14:27;;;;;;;;;4.25;2.00;;;;;11.97;60.46;102256.28;5013638;28;10056;-67
2023/06/02 03:16:56;;;;;;;;;1.75;1.75;;;;;11.93;60.48;102252.22;5007741;28;9868;-67
2023/06/02 03:19:24;;;;;;;;;4.00;4.00;;;;;11.90;60.00;102273.31;5026033;28;9944;-67
2023/06/02 03:21:51;;;;;;;;;1.75;1.75;;;;;11.87;60.47;102255.59;5015926;28;10052;-67
2023/06/02 03:24:20;;;;;;;;;3.50;2.00;;;;;11.86;60.52;102259.28;4993708;28;10011;-67
2023/06/02 03:26:51;;;;;;;;;2.00;2.00;;;;;11.92;60.53;102252.41;4992124;28;10043;-67
2023/06/02 03:29:19;;;;;;;;;2.00;1.75;;;;;11.85;60.55;102261.16;5021222;28;10040;-67
2023/06/02 03:31:54;;;;;;;;;1.75;1.75;;;;;11.86;60.63;102260.13;5012322;28;10110;-67
2023/06/02 03:34:25;;;;;;;;;1.00;1.00;;;;;11.89;60.40;102264.38;5023519;28;10096;-67
2023/06/02 03:36:52;;;;;;;;;1.75;1.75;;;;;11.92;60.65;102257.81;4999525;28;9773;-67
2023/06/02 03:39:19;;;;;;;;;1.00;1.00;;;;;11.95;60.66;102260.13;5017310;28;9915;-67
2023/06/02 03:41:46;;;;;;;;;2.50;2.00;;;;;11.94;60.47;102258.47;5006274;28;9840;-67
2023/06/02 03:44:13;;;;;;;;;3.50;3.50;;;;;11.91;60.94;102245.28;5014540;28;9936;-65
2023/06/02 03:46:40;;;;;;;;;1.00;1.00;;;;;11.90;60.58;102244.47;5001719;28;9940;-67
2023/06/02 03:49:07;;;;;;;;;1.50;1.50;;;;;11.91;61.05;102251.56;5005506;28;10009;-67
2023/06/02 03:51:33;;;;;;;;;1.25;1.25;;;;;11.92;60.75;102257.81;4996277;28;10087;-67
2023/06/02 03:54:01;;;;;;;;;3.00;2.00;;;;;11.92;61.12;102255.94;5006907;28;10010;-68
2023/06/02 03:56:29;;;;;;;;;2.00;2.00;;;;;11.95;60.62;102260.13;5021647;28;10828;-67
2023/06/02 03:58:55;;;;;;;;;2.00;1.75;;;;;11.95;60.92;102252.91;4978123;28;10058;-68
2023/06/02 04:01:23;;;;;;;;;1.75;1.00;;;;;11.93;60.91;102252.22;5003719;28;10918;-67
2023/06/02 04:03:52;;;;;;;;;3.00;2.00;;;;;11.92;61.11;102257.81;5008700;28;10023;-67
2023/06/02 04:06:19;;;;;;;;;2.00;2.00;;;;;11.92;60.74;102255.09;5005669;28;10172;-67
2023/06/02 04:08:46;;;;;;;;;1.00;1.00;;;;;11.92;61.10;102260.50;5015849;28;10904;-65
2023/06/02 04:11:13;;;;;;;;;4.00;2.00;;;;;11.85;60.51;102271.94;5005278;28;10073;-65
2023/06/02 04:13:40;;;;;;;;;2.00;1.50;;;;;11.88;60.98;102265.38;5007912;28;10088;-65
2023/06/02 04:16:07;;;;;;;;;4.00;1.50;;;;;11.86;61.09;102272.78;5009645;28;10011;-65
2023/06/02 04:18:38;;;;;;;;;3.00;2.00;;;;;11.84;60.64;102274.81;4996095;28;10166;-65
2023/06/02 04:21:07;;;;;;;;;1.75;1.75;;;;;11.82;61.19;102266.84;4994955;28;10078;-65
2023/06/02 04:23:33;;;;;;;;;3.50;2.00;;;;;11.85;60.99;102263.84;5008450;28;10241;-66
2023/06/02 04:26:00;;;;;;;;;4.50;2.00;;;;;11.83;60.69;102267.75;5004782;28;10095;-66
2023/06/02 04:28:29;;;;;;;;;2.00;2.00;;;;;11.82;61.29;102274.09;5014728;28;10181;-65
2023/06/02 04:30:59;;;;;;;;;2.00;2.00;;;;;11.85;61.62;102269.25;5006381;28;10059;-65
2023/06/02 04:33:28;;;;;;;;;5.50;3.50;;;;;11.82;61.28;102266.84;4992208;28;10010;-65
2023/06/02 04:35:56;;;;;;;;;4.00;4.00;;;;;11.79;60.99;102267.22;4989482;28;9987;-65
2023/06/02 04:38:24;;;;;;;;;3.50;2.00;;;;;11.75;61.29;102270.38;5009333;28;10097;-65
2023/06/02 04:40:51;;;;;;;;;4.50;2.00;;;;;11.73;61.30;102269.72;4989366;28;10166;-65
2023/06/02 04:43:19;;;;;;;;;2.00;2.00;;;;;11.76;61.27;102264.00;4989227;28;10311;-65
2023/06/02 04:45:47;;;;;;;;;2.00;2.00;;;;;11.79;61.42;102267.22;5003448;28;10094;-65
2023/06/02 04:48:17;;;;;;;;;1.75;1.75;;;;;11.83;61.42;102271.28;4997672;28;10288;-65
2023/06/02 04:50:43;;;;;;;;;2.00;1.00;;;;;11.90;61.45;102270.59;5058775;23;10022;-71
2023/06/02 04:53:11;;;;;;;;;2.25;2.00;;;;;11.86;61.25;102270.94;5051202;28;9996;-70
2023/06/02 04:55:37;;;;;;;;;2.00;1.25;;;;;11.78;61.02;102275.44;5052459;28;10171;-70
2023/06/02 04:58:04;;;;;;;;;1.75;1.75;;;;;11.73;61.03;102270.56;5068018;28;10139;-70
2023/06/02 05:00:31;;;;;;;;;5.50;3.00;;;;;11.77;60.97;102273.75;5020969;28;10038;-69
2023/06/02 05:02:58;;;;;;;;;1.00;1.00;;;;;11.77;61.39;102268.38;5041023;28;9910;-70
2023/06/02 05:05:27;;;;;;;;;1.00;1.00;;;;;11.71;61.37;102271.72;5031568;28;9908;-70
2023/06/02 05:07:54;;;;;;;;;2.75;2.00;;;;;11.74;61.48;102274.94;5016645;28;9996;-71
2023/06/02 05:10:22;;;;;;;;;1.75;1.75;;;;;11.71;61.63;102264.50;5032520;28;10014;-70
2023/06/02 05:12:49;;;;;;;;;1.00;1.00;;;;;11.75;61.38;102265.84;5032731;28;10060;-71
2023/06/02 05:15:16;;;;;;;;;1.75;1.75;;;;;11.80;61.46;102270.75;5052414;28;9900;-70
2023/06/02 05:17:43;;;;;;;;;1.00;1.00;;;;;11.87;61.47;102275.34;5044599;28;9927;-70
2023/06/02 05:20:11;;;;;;;;;2.25;2.00;;;;;11.91;61.69;102272.28;5035261;28;10080;-71
2023/06/02 05:22:39;;;;;;;;;2.00;2.00;;;;;11.86;61.08;102275.47;5031283;28;10253;-70
2023/06/02 05:25:08;;;;;;;;;2.75;1.00;;;;;11.88;61.33;102276.19;5031634;28;10050;-70
2023/06/02 05:27:37;;;;;;;;;1.50;1.00;;;;;11.91;61.57;102274.97;5047007;28;9985;-71
2023/06/02 05:30:05;;;;;;;;;5.00;3.00;;;;;11.96;61.16;102278.88;5048487;28;9922;-70
2023/06/02 05:32:32;;;;;;;;;1.50;1.50;;;;;11.95;61.18;102266.41;5045820;28;10039;-70
2023/06/02 05:35:01;;;;;;;;;1.75;1.00;;;;;12.00;61.57;102274.00;5036019;28;10142;-70
2023/06/02 05:37:28;;;;;;;;;2.00;2.00;;;;;12.00;61.42;102274.84;5023056;28;10152;-68
2023/06/02 05:39:55;;;;;;;;;1.50;1.50;;;;;12.01;61.67;102275.66;5027103;28;10800;-69
2023/06/02 05:42:25;;;;;;;;;1.25;1.25;;;;;12.04;61.15;102270.78;5033193;28;10027;-69
2023/06/02 05:44:52;;;;;;;;;3.00;3.00;;;;;12.04;61.15;102280.75;5047756;28;9870;-69
2023/06/02 05:47:18;;;;;;;;;1.00;1.00;;;;;11.99;61.30;102266.88;5047009;28;9928;-70
2023/06/02 05:49:46;;;;;;;;;4.25;4.00;;;;;12.01;61.54;102275.66;5013497;28;9905;-69
2023/06/02 05:52:13;;;;;;;;;3.25;3.25;;;;;12.00;61.63;102274.00;5016693;28;9839;-69
2023/06/02 05:54:40;;;;;;;;;4.00;3.00;;;;;12.03;61.52;102279.91;5045441;28;9913;-70
2023/06/02 05:57:06;;;;;;;;;3.50;2.00;;;;;12.03;61.31;102279.03;5046977;28;9756;-68
2023/06/02 05:59:33;;;;;;;;;2.00;2.00;;;;;12.08;61.57;102271.28;5050348;28;9711;-69
2023/06/02 06:02:00;;;;;;;;;1.25;1.00;;;;;12.12;61.52;102280.75;5035043;28;9965;-70
2023/06/02 06:04:27;;;;;;;;;1.25;1.25;;;;;12.14;61.47;102278.69;5039054;28;9741;-70
2023/06/02 06:06:54;;;;;;;;;2.00;2.00;;;;;12.13;61.56;102282.41;5050606;28;10452;-70
2023/06/02 06:09:21;;;;;;;;;1.25;1.25;;;;;12.13;60.52;102282.41;5034043;28;9757;-70
2023/06/02 06:11:48;;;;;;;;;1.50;1.00;;;;;12.12;61.28;102275.34;5031280;28;10632;-71
2023/06/02 06:14:14;;;;;;;;;2.25;2.25;;;;;12.16;61.32;102279.38;5025558;28;9964;-71
2023/06/02 06:16:41;;;;;;;;;2.00;1.00;;;;;12.25;60.71;102282.91;5048814;28;9885;-70
2023/06/02 06:19:08;;;;;;;;;1.25;1.25;;;;;12.27;60.95;102283.56;5036922;28;9827;-71
2023/06/02 06:21:36;;;;;;;;;3.00;1.00;;;;;12.29;60.61;102285.09;5031178;28;9765;-69
2023/06/02 06:24:04;;;;;;;;;5.75;5.00;;;;;12.25;60.04;102277.53;5028293;28;10014;-69
2023/06/02 06:26:31;;;;;;;;;2.75;2.75;;;;;12.21;60.50;102274.31;5045353;28;9914;-70
2023/06/02 06:28:58;;;;;;;;;4.25;4.25;;;;;12.23;60.48;102274.97;5051354;28;10031;-69
2023/06/02 06:31:25;;;;;;;;;4.00;2.00;;;;;12.22;60.35;102280.56;5046379;28;10018;-69
2023/06/02 06:33:52;;;;;;;;;2.00;2.00;;;;;12.20;60.95;102275.34;5030675;28;9893;-70
2023/06/02 06:36:19;;;;;;;;;2.00;2.00;;;;;12.24;60.92;102276.69;5038753;28;9939;-70
2023/06/02 06:38:46;;;;;;;;;4.00;3.00;;;;;12.25;61.15;102272.97;5028779;28;9922;-69
2023/06/02 06:41:13;;;;;;;;;3.00;3.00;;;;;12.27;61.13;102280.88;5051158;28;10049;-70
2023/06/02 06:43:39;;;;;;;;;2.00;2.00;;;;;12.23;61.08;102274.13;5033361;28;10012;-70
2023/06/02 06:46:15;;;;;;;;;3.00;1.00;;;;;12.23;61.37;102285.78;5032096;28;10130;-69
2023/06/02 06:48:41;;;;;;;;;2.00;2.00;;;;;12.23;61.34;102282.22;5044354;28;9824;-68
2023/06/02 06:51:08;;;;;;;;;4.25;2.25;;;;;12.30;61.83;102286.78;5033011;28;10705;-69
2023/06/02 06:53:34;;;;;;;;;3.00;3.00;;;;;12.37;61.35;102289.66;5033514;28;9761;-69
2023/06/02 06:56:02;;;;;;;;;1.50;1.50;;;;;12.36;61.55;102288.81;5029051;28;9919;-69
2023/06/02 06:58:29;;;;;;;;;4.00;3.00;;;;;12.40;61.73;102289.31;5049883;28;9845;-69
2023/06/02 07:00:57;;;;;;;;;6.25;2.00;;;;;12.42;61.61;102292.69;5049052;28;9839;-69
2023/06/02 07:03:23;;;;;;;;;5.50;4.00;;;;;12.41;61.77;102292.88;5017686;28;10661;-67
2023/06/02 07:05:50;;;;;;;;;2.75;2.00;;;;;12.42;61.83;102300.78;5047955;28;9910;-68
2023/06/02 07:08:17;;;;;;;;;4.00;2.00;;;;;12.41;61.35;102295.56;5050952;28;10621;-68
2023/06/02 07:10:44;;;;;;;;;1.00;1.00;;;;;12.41;61.81;102295.56;5032746;28;10305;-66
2023/06/02 07:13:11;;;;;;;;;4.50;3.00;;;;;12.42;62.97;102295.38;5046674;28;9812;-68
2023/06/02 07:15:37;;;;;;;;;2.25;2.25;;;;;12.45;62.06;102294.22;5044550;28;10637;-68
2023/06/02 07:18:04;;;;;;;;;4.50;2.00;;;;;12.42;62.13;102289.97;5035462;28;9875;-68
2023/06/02 07:20:31;;;;;;;;;4.50;2.75;;;;;12.43;62.43;102298.91;5042582;28;9780;-69
2023/06/02 07:22:57;;;;;;;;;9.50;2.50;;;;;12.45;62.34;102305.84;5030691;28;9749;-68
2023/06/02 07:25:24;;;;;;;;;5.50;5.25;;;;;12.41;62.23;102301.81;5031450;28;9994;-68
2023/06/02 07:27:50;;;;;;;;;5.00;1.50;;;;;12.41;62.52;102299.09;5026492;28;9923;-68
2023/06/02 07:30:17;;;;;;;;;2.50;2.00;;;;;12.45;62.40;102299.63;5037662;28;9851;-69
2023/06/02 07:32:43;;;;;;;;;3.00;3.00;;;;;12.46;62.97;102309.41;5019472;28;9948;-68
2023/06/02 07:35:10;;;;;;;;;3.25;3.25;;;;;12.43;63.05;102302.47;5027800;28;9759;-68
2023/06/02 07:37:36;;;;;;;;;2.00;2.00;;;;;12.34;63.90;102308.91;5046417;28;10577;-68
2023/06/02 07:40:04;;;;;;;;;2.75;1.50;;;;;12.33;64.47;102310.75;5047326;28;9829;-69
2023/06/02 07:42:30;;;;;;;;;4.00;4.00;;;;;12.31;64.44;102309.22;5046072;28;9961;-68
2023/06/02 07:44:56;;;;;;;;;1.75;1.75;;;;;12.35;64.49;102313.28;5028036;28;9931;-68
2023/06/02 07:47:23;;;;;;;;;4.50;2.00;;;;;12.33;64.01;102308.06;5041156;28;9851;-68
2023/06/02 07:49:50;;;;;;;;;2.00;2.00;;;;;12.32;64.44;102303.69;5040830;28;9919;-69
2023/06/02 07:52:16;;;;;;;;;5.25;4.50;;;;;12.34;64.71;102311.59;5047318;28;9993;-69
2023/06/02 07:54:45;;;;;;;;;3.00;3.00;;;;;12.30;64.41;102313.78;5048782;28;10081;-68
2023/06/02 07:57:12;;;;;;;;;1.75;1.75;;;;;12.29;64.63;102309.41;5029543;28;9737;-69
2023/06/02 07:59:38;;;;;;;;;1.75;1.25;;;;;12.24;64.60;102308.25;5030297;28;10007;-68
2023/06/02 08:02:05;;;;;;;;;3.00;3.00;;;;;12.18;64.75;102315.13;5044627;28;9738;-68
2023/06/02 08:04:33;;;;;;;;;4.25;2.00;;;;;12.12;65.38;102313.97;5036960;28;9954;-68
2023/06/02 08:07:00;;;;;;;;;3.50;2.75;;;;;12.15;65.61;102309.22;5044026;28;10057;-68
2023/06/02 08:09:26;;;;;;;;;2.00;2.00;;;;;12.26;65.87;102311.59;5037640;28;9836;-69
2023/06/02 08:11:53;;;;;;;;;3.50;2.00;;;;;12.36;65.55;102318.53;5029282;28;9930;-69
2023/06/02 08:14:20;;;;;;;;;6.50;4.00;;;;;12.42;64.82;102316.16;5036665;28;9907;-69
2023/06/02 08:16:46;;;;;;;;;6.00;2.00;;;;;12.43;65.42;102313.25;5041214;28;9832;-69
2023/06/02 08:19:25;;;;;;;;;5.25;1.75;;;;;12.44;64.97;102306.03;5047283;28;9854;-69
2023/06/02 08:21:52;;;;;;;;;4.25;2.50;;;;;12.46;65.24;102304.81;5037404;28;9671;-69
2023/06/02 08:24:20;;;;;;;;;2.50;2.50;;;;;12.46;65.31;102306.69;5044603;28;10522;-69
2023/06/02 08:26:48;;;;;;;;;2.25;2.25;;;;;12.55;65.45;102305.66;5048019;28;9856;-68
2023/06/02 08:29:15;;;;;;;;;4.00;3.00;;;;;12.58;65.02;102302.63;5030546;28;10751;-69
2023/06/02 08:31:42;;;;;;;;;1.75;1.75;;;;;12.59;64.40;102317.81;5048124;28;9669;-68
2023/06/02 08:34:10;;;;;;;;;2.00;2.00;;;;;12.55;65.02;102311.06;5039054;28;9849;-69
2023/06/02 08:36:37;;;;;;;;;4.50;0.50;;;;;12.58;65.21;102308.84;5045852;28;9901;-69
2023/06/02 08:39:06;;;;;;;;;1.50;1.25;;;;;12.63;64.89;102313.75;5044797;28;9736;-69
2023/06/02 08:41:39;;;;;;;;;7.00;2.25;;;;;12.62;64.79;102310.19;5052371;28;9686;-68
2023/06/02 08:44:06;;;;;;;;;4.75;2.25;;;;;12.60;64.55;102308.72;5038682;28;9805;-69
2023/06/02 08:46:33;;;;;;;;;3.50;1.25;;;;;12.56;64.91;102313.59;5033416;28;9672;-68
2023/06/02 08:49:00;;;;;;;;;6.00;4.00;;;;;12.52;64.84;102301.47;5027793;28;9746;-68
2023/06/02 08:51:31;;;;;;;;;1.00;1.00;;;;;12.53;65.46;102307.69;5049969;28;9920;-69
2023/06/02 08:53:59;;;;;;;;;2.50;2.50;;;;;12.57;65.57;102304.47;5041307;28;10484;-72
2023/06/02 08:56:25;;;;;;;;;5.00;2.00;;;;;12.68;65.25;102305.13;5034000;28;9732;-70
2023/06/02 08:58:52;;;;;;;;;6.50;3.75;;;;;12.76;65.26;102300.56;5032544;28;10021;-69
2023/06/02 09:01:18;;;;;;;;;3.50;2.75;;;;;12.81;64.86;102309.00;5049047;28;9902;-69
2023/06/02 09:03:46;;;;;;;;;3.75;3.75;;;;;12.87;64.90;102310.97;5033897;28;9919;-71
2023/06/02 09:06:21;;;;;;;;;4.25;2.50;;;;;12.91;64.64;102310.66;5047845;28;9831;-71
2023/06/02 09:09:01;;;;;;;;;2.75;2.00;;;;;12.87;64.52;102315.56;5052401;28;9830;-71
2023/06/02 09:11:30;;;;;;;;;2.50;2.50;;;;;12.80;64.87;102299.22;5052170;28;9743;-70
2023/06/02 09:13:57;;;;;;;;;5.00;2.50;;;;;12.86;64.63;102312.00;5049986;28;9756;-71
2023/06/02 09:16:40;;;;;;;;;5.00;3.00;;;;;12.92;64.73;102313.16;5051535;28;9946;-70
2023/06/02 09:19:07;;;;;;;;;5.00;2.00;;;;;12.98;64.88;102311.66;5039229;28;9772;-71
2023/06/02 09:21:35;;;;;;;;;6.00;3.50;;;;;13.04;64.66;102311.78;5047034;28;9666;-69
2023/06/02 09:24:03;;;;;;;;;8.25;4.00;;;;;13.06;64.37;102308.91;5044222;28;9883;-70
2023/06/02 09:26:34;;;;;;;;;5.75;3.50;;;;;13.15;64.23;102312.41;5029838;28;9833;-71
2023/06/02 09:29:03;;;;;;;;;6.00;4.25;;;;;13.22;64.29;102314.25;5032890;28;9826;-70
2023/06/02 09:31:48;;;;;;;;;5.00;5.00;;;;;13.29;63.97;102312.56;5050359;28;9863;-70
2023/06/02 09:34:16;;;;;;;;;4.75;3.75;;;;;13.32;63.82;102314.91;5044646;28;9821;-67
2023/06/02 09:36:44;;;;;;;;;5.50;5.00;;;;;13.24;64.14;102312.22;5037361;28;9842;-68
2023/06/02 09:39:11;;;;;;;;;6.00;3.00;;;;;13.24;64.53;102304.13;5042866;28;9696;-67
2023/06/02 09:41:38;;;;;;;;;5.75;4.00;;;;;13.30;64.85;102311.53;5047778;28;9665;-67
2023/06/02 09:44:12;;;;;;;;;6.75;5.25;;;;;13.38;64.68;102307.13;5049181;28;9905;-68
2023/06/02 09:46:41;;;;;;;;;5.00;4.25;;;;;13.36;64.27;102310.81;5051177;28;9913;-68
2023/06/02 09:49:09;;;;;;;;;5.00;5.00;;;;;13.37;64.46;102317.09;5046858;28;9678;-67
2023/06/02 09:51:37;;;;;;;;;4.00;3.50;;;;;13.43;64.26;102313.66;5051873;28;9734;-67
2023/06/02 09:54:08;;;;;;;;;5.25;3.00;;;;;13.42;64.33;102313.84;5048308;28;10419;-67
2023/06/02 09:56:38;;;;;;;;;2.00;2.00;;;;;13.43;64.29;102315.53;5050260;28;10520;-67
2023/06/02 09:59:06;;;;;;;;;6.00;6.00;;;;;13.45;64.22;102317.06;5041344;28;9660;-68
2023/06/02 10:01:33;;;;;;;;;7.00;6.00;;;;;13.52;64.23;102319.88;5025891;28;9944;-68
2023/06/02 10:04:01;;;;;;;;;7.00;5.75;;;;;13.65;64.05;102314.72;5032582;28;10537;-67
2023/06/02 10:06:42;;;;;;;;;6.50;6.00;;;;;13.67;63.38;102318.09;5045336;28;9973;-67
2023/06/02 10:09:39;;;;;;;;;5.75;4.00;;;;;13.69;63.68;102313.34;5032271;28;9842;-67
2023/06/02 10:12:06;;;;;;;;;6.50;5.50;;;;;13.76;63.59;102316.19;5045140;28;9607;-68
2023/06/02 10:14:53;;;;;;;;;4.00;3.50;;;;;13.69;63.17;102309.78;5043775;28;9756;-68
2023/06/02 10:17:31;;;;;;;;;5.25;5.25;;;;;13.61;63.55;102305.28;5032443;28;9672;-67
2023/06/02 10:20:00;;;;;;;;;5.00;5.00;;;;;13.59;63.70;102301.91;5049160;28;9600;-68
2023/06/02 10:22:50;;;;;;;;;6.00;6.00;;;;;13.60;63.40;102306.31;5049680;28;9916;-67
2023/06/02 10:25:31;;;;;;;;;5.75;4.75;;;;;13.57;63.43;102301.25;5049234;28;9875;-67
2023/06/02 10:28:01;;;;;;;;;4.00;4.00;;;;;13.68;63.88;102303.53;5048118;28;10451;-67
2023/06/02 10:30:28;;;;;;;;;4.50;4.50;;;;;13.87;63.34;102304.94;5048021;28;9699;-68
2023/06/02 10:32:55;;;;;;;;;10.00;6.25;;;;;13.87;62.97;102301.41;5033835;28;9772;-67
2023/06/02 10:35:42;;;;;;;;;8.00;5.75;;;;;13.86;63.47;102311.41;5032330;28;9830;-68
2023/06/02 10:38:31;;;;;;;;;7.75;6.50;;;;;13.81;63.02;102303.81;5028992;28;9921;-68
2023/06/02 10:40:59;;;;;;;;;8.00;6.50;;;;;13.79;63.52;102305.00;5030948;28;9905;-69
2023/06/02 10:43:26;;;;;;;;;7.00;3.25;;;;;13.80;63.90;102302.09;5038081;28;9929;-69
2023/06/02 10:46:22;;;;;;;;;9.00;9.00;;;;;13.84;64.49;102297.19;5043581;28;9743;-68
2023/06/02 10:48:49;;;;;;;;;5.75;5.00;;;;;13.91;63.94;102302.72;5046632;28;9925;-68
2023/06/02 10:51:16;;;;;;;;;6.50;6.50;;;;;13.88;64.23;102308.50;5039913;28;10426;-69
2023/06/02 10:54:06;;;;;;;;;7.00;5.00;;;;;13.87;64.36;102310.38;5046660;28;9731;-69
2023/06/02 10:56:35;;;;;;;;;7.50;5.50;;;;;13.92;64.36;102310.66;5042059;28;9623;-68
2023/06/02 10:59:03;;;;;;;;;6.50;6.50;;;;;13.94;64.20;102311.34;5046785;28;9605;-69
2023/06/02 11:01:49;;;;;;;;;7.50;6.50;;;;;13.97;64.25;102316.38;5034656;28;9686;-69
2023/06/02 11:04:26;;;;;;;;;3.00;3.00;;;;;14.03;64.83;102314.81;5036997;28;9752;-69
2023/06/02 11:07:15;;;;;;;;;9.00;8.00;;;;;14.05;64.56;102308.19;5040948;28;9596;-69
2023/06/02 11:09:43;;;;;;;;;6.00;6.00;;;;;14.07;65.05;102311.56;5042453;28;9779;-69
2023/06/02 11:12:10;;;;;;;;;7.75;5.50;;;;;14.16;64.34;102311.50;5046834;28;9772;-69
2023/06/02 11:15:01;;;;;;;;;6.75;6.75;;;;;14.19;64.50;102311.97;5040300;28;9814;-70
2023/06/02 11:17:32;;;;;;;;;6.50;5.50;;;;;14.19;64.56;102314.69;5049720;28;9671;-69
2023/06/02 11:19:59;;;;;;;;;8.50;6.00;;;;;14.14;64.43;102322.53;5043554;28;9509;-70
2023/06/02 11:22:30;;;;;;;;;6.75;5.75;;;;;14.20;64.13;102312.81;5047379;28;9683;-68
2023/06/02 11:24:56;;;;;;;;;9.50;7.75;;;;;14.10;64.37;102318.50;5044124;28;9669;-69
2023/06/02 11:27:36;;;;;;;;;7.50;7.50;;;;;14.08;64.46;102315.94;5050035;28;10457;-70
2023/06/02 11:30:05;;;;;;;;;5.00;5.00;;;;;14.09;64.89;102323.03;5048881;28;9810;-69
2023/06/02 11:32:32;;;;;;;;;7.00;7.00;;;;;14.20;65.07;102323.66;5049798;28;9729;-69
2023/06/02 11:35:03;;;;;;;;;8.00;5.50;;;;;14.27;64.85;102316.50;5042772;28;9757;-69
2023/06/02 11:37:29;;;;;;;;;6.00;6.00;;;;;14.34;64.44;102310.16;5046513;28;9862;-69